ITY339 LFML-LIRF
Flight info
| Callsign | ITY339 |
|---|---|
| Flight time | 0h 58m |
| Altitude | 27000 |
| Route | NASIK P856 RAPED DCT RAPUR DCT RATAP DCT BTA DCT MOULE DCT XOPTA DCT ELB DCT ELKAP |
| Aircraft | A320/M-SDE3FGHIRWY/LB1 |
Departure
| Time | 2026-05-05 14:36 |
|---|---|
| Airport | Marseille Provence Airport (LFML) |
Arrival
| Time | 2026-05-05 15:34 |
|---|---|
| Airport | Rome–Fiumicino Leonardo da Vinci International Airport (LIRF) |
| Time | Latitude | Longitude | Altitude | Speed | Heading |
|---|---|---|---|---|---|
| 2026-05-05 13:54 | 43.44067 | 5.22069 | 41 ft | 0 kts | 50° |
| 2026-05-05 14:24 | 43.44066 | 5.22068 | 41 ft | 2 kts | 50° |
| 2026-05-05 14:24 | 43.44048 | 5.22047 | 41 ft | 4 kts | 27° |
| 2026-05-05 14:24 | 43.44029 | 5.22030 | 40 ft | 4 kts | 31° |
| 2026-05-05 14:25 | 43.44007 | 5.22021 | 37 ft | 4 kts | 338° |
| 2026-05-05 14:25 | 43.43989 | 5.22038 | 42 ft | 1 kts | 313° |
| 2026-05-05 14:25 | 43.43987 | 5.22042 | 42 ft | 0 kts | 313° |
| 2026-05-05 14:28 | 43.43993 | 5.22032 | 41 ft | 2 kts | 313° |
| 2026-05-05 14:29 | 43.44014 | 5.22002 | 40 ft | 6 kts | 313° |
| 2026-05-05 14:29 | 43.44047 | 5.21955 | 40 ft | 8 kts | 315° |
| 2026-05-05 14:29 | 43.44087 | 5.21900 | 39 ft | 8 kts | 315° |
| 2026-05-05 14:29 | 43.44113 | 5.21831 | 37 ft | 8 kts | 269° |
| 2026-05-05 14:30 | 43.44082 | 5.21770 | 37 ft | 8 kts | 225° |
| 2026-05-05 14:30 | 43.44037 | 5.21711 | 38 ft | 10 kts | 224° |
| 2026-05-05 14:30 | 43.43986 | 5.21641 | 38 ft | 11 kts | 224° |
| 2026-05-05 14:30 | 43.43929 | 5.21563 | 39 ft | 12 kts | 236° |
| 2026-05-05 14:31 | 43.43944 | 5.21455 | 38 ft | 13 kts | 311° |
| 2026-05-05 14:31 | 43.44007 | 5.21366 | 36 ft | 13 kts | 314° |
| 2026-05-05 14:31 | 43.44070 | 5.21276 | 34 ft | 14 kts | 314° |
| 2026-05-05 14:31 | 43.44140 | 5.21175 | 32 ft | 15 kts | 314° |
| 2026-05-05 14:32 | 43.44215 | 5.21069 | 29 ft | 15 kts | 314° |
| 2026-05-05 14:32 | 43.44280 | 5.20957 | 28 ft | 15 kts | 301° |
| 2026-05-05 14:32 | 43.44335 | 5.20834 | 28 ft | 16 kts | 307° |
| 2026-05-05 14:32 | 43.44409 | 5.20724 | 24 ft | 15 kts | 314° |
| 2026-05-05 14:33 | 43.44483 | 5.20618 | 23 ft | 17 kts | 314° |
| 2026-05-05 14:33 | 43.44565 | 5.20501 | 21 ft | 17 kts | 314° |
| 2026-05-05 14:33 | 43.44650 | 5.20380 | 19 ft | 20 kts | 314° |
| 2026-05-05 14:33 | 43.44750 | 5.20237 | 16 ft | 22 kts | 314° |
| 2026-05-05 14:34 | 43.44855 | 5.20087 | 13 ft | 21 kts | 314° |
| 2026-05-05 14:34 | 43.44936 | 5.19972 | 11 ft | 11 kts | 314° |
| 2026-05-05 14:34 | 43.44980 | 5.19892 | 10 ft | 10 kts | 288° |
| 2026-05-05 14:34 | 43.44955 | 5.19807 | 11 ft | 10 kts | 219° |
| 2026-05-05 14:35 | 43.44891 | 5.19776 | 10 ft | 7 kts | 165° |
| 2026-05-05 14:35 | 43.44869 | 5.19801 | 11 ft | 0 kts | 135° |
| 2026-05-05 14:35 | 43.44867 | 5.19804 | 10 ft | 6 kts | 135° |
| 2026-05-05 14:35 | 43.44693 | 5.20051 | 15 ft | 71 kts | 134° |
| 2026-05-05 14:36 | 43.44205 | 5.20745 | 28 ft | 129 kts | 134° |
| 2026-05-05 14:36 | 43.43465 | 5.21795 | 90 ft | 171 kts | 134° |
| 2026-05-05 14:36 | 43.42634 | 5.22968 | 763 ft | 170 kts | 132° |
| 2026-05-05 14:36 | 43.42089 | 5.24434 | 1454 ft | 181 kts | 109° |
| 2026-05-05 14:37 | 43.42045 | 5.26276 | 1799 ft | 209 kts | 84° |
| 2026-05-05 14:37 | 43.42329 | 5.28362 | 2194 ft | 234 kts | 81° |
| 2026-05-05 14:37 | 43.42639 | 5.30674 | 2698 ft | 257 kts | 81° |
| 2026-05-05 14:37 | 43.42971 | 5.33160 | 3477 ft | 268 kts | 81° |
| 2026-05-05 14:38 | 43.43165 | 5.35707 | 4325 ft | 270 kts | 96° |
| 2026-05-05 14:38 | 43.43049 | 5.38312 | 5127 ft | 276 kts | 97° |
| 2026-05-05 14:38 | 43.42918 | 5.40968 | 5967 ft | 281 kts | 96° |
| 2026-05-05 14:38 | 43.42782 | 5.43681 | 6755 ft | 287 kts | 96° |
| 2026-05-05 14:39 | 43.42642 | 5.46440 | 7557 ft | 291 kts | 96° |
| 2026-05-05 14:39 | 43.42501 | 5.49236 | 8403 ft | 294 kts | 96° |
| 2026-05-05 14:39 | 43.42360 | 5.52061 | 9238 ft | 298 kts | 96° |
| 2026-05-05 14:39 | 43.42218 | 5.54925 | 10021 ft | 302 kts | 96° |
| 2026-05-05 14:40 | 43.42069 | 5.57886 | 10418 ft | 321 kts | 97° |
| 2026-05-05 14:40 | 43.41905 | 5.61057 | 10665 ft | 343 kts | 97° |
| 2026-05-05 14:40 | 43.41732 | 5.64378 | 11226 ft | 352 kts | 97° |
| 2026-05-05 14:40 | 43.41562 | 5.67711 | 11901 ft | 357 kts | 97° |
| 2026-05-05 14:41 | 43.41389 | 5.71136 | 12599 ft | 362 kts | 97° |
| 2026-05-05 14:41 | 43.41343 | 5.74626 | 13265 ft | 370 kts | 90° |
| 2026-05-05 14:41 | 43.41476 | 5.78177 | 13920 ft | 374 kts | 90° |
| 2026-05-05 14:41 | 43.41604 | 5.81775 | 14504 ft | 378 kts | 91° |
| 2026-05-05 14:42 | 43.41733 | 5.85407 | 15094 ft | 383 kts | 91° |
| 2026-05-05 14:42 | 43.41862 | 5.89084 | 15700 ft | 387 kts | 91° |
| 2026-05-05 14:42 | 43.41992 | 5.92801 | 16310 ft | 391 kts | 91° |
| 2026-05-05 14:42 | 43.42119 | 5.96553 | 16902 ft | 395 kts | 91° |
| 2026-05-05 14:43 | 43.42241 | 6.00343 | 17484 ft | 399 kts | 91° |
| 2026-05-05 14:43 | 43.42363 | 6.04171 | 18082 ft | 403 kts | 91° |
| 2026-05-05 14:43 | 43.42486 | 6.08044 | 18598 ft | 407 kts | 91° |
| 2026-05-05 14:43 | 43.42614 | 6.11952 | 19084 ft | 411 kts | 91° |
| 2026-05-05 14:44 | 43.42740 | 6.15899 | 19571 ft | 415 kts | 92° |
| 2026-05-05 14:44 | 43.42864 | 6.19893 | 20086 ft | 420 kts | 92° |
| 2026-05-05 14:44 | 43.42986 | 6.23922 | 20590 ft | 424 kts | 92° |
| 2026-05-05 14:44 | 43.42958 | 6.27975 | 21066 ft | 424 kts | 100° |
| 2026-05-05 14:45 | 43.42614 | 6.32006 | 21555 ft | 426 kts | 102° |
| 2026-05-05 14:45 | 43.42251 | 6.36072 | 22042 ft | 430 kts | 102° |
| 2026-05-05 14:45 | 43.41881 | 6.40178 | 22527 ft | 434 kts | 102° |
| 2026-05-05 14:45 | 43.41508 | 6.44316 | 22986 ft | 438 kts | 103° |
| 2026-05-05 14:46 | 43.41128 | 6.48499 | 23415 ft | 442 kts | 102° |
| 2026-05-05 14:46 | 43.40743 | 6.52714 | 23808 ft | 446 kts | 103° |
| 2026-05-05 14:46 | 43.40351 | 6.56961 | 24222 ft | 450 kts | 103° |
| 2026-05-05 14:46 | 43.39954 | 6.61239 | 24619 ft | 453 kts | 103° |
| 2026-05-05 14:47 | 43.39551 | 6.65552 | 24986 ft | 457 kts | 103° |
| 2026-05-05 14:47 | 43.39148 | 6.69904 | 25352 ft | 460 kts | 103° |
| 2026-05-05 14:47 | 43.38744 | 6.74280 | 25707 ft | 463 kts | 103° |
| 2026-05-05 14:47 | 43.38336 | 6.78686 | 26062 ft | 466 kts | 103° |
| 2026-05-05 14:48 | 43.37919 | 6.83126 | 26393 ft | 469 kts | 103° |
| 2026-05-05 14:48 | 43.37486 | 6.87582 | 26685 ft | 471 kts | 105° |
| 2026-05-05 14:48 | 43.36680 | 6.91907 | 26916 ft | 464 kts | 116° |
| 2026-05-05 14:48 | 43.35640 | 6.95970 | 26947 ft | 451 kts | 116° |
| 2026-05-05 14:49 | 43.34599 | 6.99991 | 26949 ft | 445 kts | 117° |
| 2026-05-05 14:49 | 43.33551 | 7.03983 | 26950 ft | 443 kts | 117° |
| 2026-05-05 14:49 | 43.32501 | 7.07955 | 26950 ft | 442 kts | 117° |
| 2026-05-05 14:49 | 43.31451 | 7.11922 | 26951 ft | 442 kts | 117° |
| 2026-05-05 14:50 | 43.30402 | 7.15896 | 26951 ft | 442 kts | 117° |
| 2026-05-05 14:50 | 43.29359 | 7.19864 | 26952 ft | 442 kts | 117° |
| 2026-05-05 14:50 | 43.28318 | 7.23831 | 26953 ft | 442 kts | 117° |
| 2026-05-05 14:50 | 43.27275 | 7.27805 | 26950 ft | 442 kts | 117° |
| 2026-05-05 14:51 | 43.26231 | 7.31769 | 26955 ft | 442 kts | 117° |
| 2026-05-05 14:51 | 43.25181 | 7.35736 | 26955 ft | 442 kts | 117° |
| 2026-05-05 14:51 | 43.24133 | 7.39695 | 26954 ft | 442 kts | 117° |
| 2026-05-05 14:51 | 43.23084 | 7.43652 | 26954 ft | 442 kts | 117° |
| 2026-05-05 14:52 | 43.22033 | 7.47614 | 26952 ft | 442 kts | 117° |
| 2026-05-05 14:52 | 43.20984 | 7.51569 | 26951 ft | 442 kts | 117° |
| 2026-05-05 14:52 | 43.19932 | 7.55528 | 26951 ft | 442 kts | 117° |
| 2026-05-05 14:52 | 43.18879 | 7.59478 | 26931 ft | 442 kts | 117° |
| 2026-05-05 14:53 | 43.17823 | 7.63425 | 26937 ft | 441 kts | 117° |
| 2026-05-05 14:53 | 43.16764 | 7.67375 | 26923 ft | 441 kts | 117° |
| 2026-05-05 14:53 | 43.15706 | 7.71316 | 26928 ft | 441 kts | 117° |
| 2026-05-05 14:53 | 43.14648 | 7.75254 | 26936 ft | 441 kts | 117° |
| 2026-05-05 14:54 | 43.13590 | 7.79198 | 26933 ft | 441 kts | 117° |
| 2026-05-05 14:54 | 43.12533 | 7.83134 | 26936 ft | 441 kts | 117° |
| 2026-05-05 14:54 | 43.11472 | 7.87072 | 26940 ft | 441 kts | 117° |
| 2026-05-05 14:54 | 43.10409 | 7.91000 | 26940 ft | 440 kts | 117° |
| 2026-05-05 14:55 | 43.09344 | 7.94925 | 26942 ft | 440 kts | 117° |
| 2026-05-05 14:55 | 43.08276 | 7.98854 | 26915 ft | 440 kts | 117° |
| 2026-05-05 14:55 | 43.07209 | 8.02776 | 26921 ft | 440 kts | 117° |
| 2026-05-05 14:55 | 43.06138 | 8.06701 | 26933 ft | 440 kts | 117° |
| 2026-05-05 14:56 | 43.05068 | 8.10621 | 26942 ft | 440 kts | 117° |
| 2026-05-05 14:56 | 43.04002 | 8.14543 | 26942 ft | 440 kts | 117° |
| 2026-05-05 14:56 | 43.02932 | 8.18468 | 26945 ft | 440 kts | 117° |
| 2026-05-05 14:56 | 43.01862 | 8.22385 | 26945 ft | 440 kts | 117° |
| 2026-05-05 14:57 | 43.00789 | 8.26299 | 26945 ft | 440 kts | 117° |
| 2026-05-05 14:57 | 42.99713 | 8.30217 | 26947 ft | 440 kts | 117° |
| 2026-05-05 14:57 | 42.98637 | 8.34128 | 26947 ft | 440 kts | 117° |
| 2026-05-05 14:57 | 42.97559 | 8.38043 | 26928 ft | 440 kts | 117° |
| 2026-05-05 14:58 | 42.96845 | 8.40635 | 26930 ft | 440 kts | 117° |
| 2026-05-05 14:58 | 42.95764 | 8.44546 | 26931 ft | 441 kts | 117° |
| 2026-05-05 14:58 | 42.94680 | 8.48462 | 26933 ft | 441 kts | 117° |
| 2026-05-05 14:58 | 42.93597 | 8.52374 | 26934 ft | 441 kts | 117° |
| 2026-05-05 14:59 | 42.92513 | 8.56285 | 26941 ft | 441 kts | 117° |
| 2026-05-05 14:59 | 42.91423 | 8.60200 | 26942 ft | 441 kts | 117° |
| 2026-05-05 14:59 | 42.90331 | 8.64106 | 26943 ft | 441 kts | 117° |
| 2026-05-05 14:59 | 42.89189 | 8.67973 | 26920 ft | 437 kts | 122° |
| 2026-05-05 15:00 | 42.87778 | 8.71621 | 26926 ft | 434 kts | 126° |
| 2026-05-05 15:00 | 42.86343 | 8.75240 | 26933 ft | 435 kts | 125° |
| 2026-05-05 15:00 | 42.84904 | 8.78864 | 26939 ft | 435 kts | 125° |
| 2026-05-05 15:00 | 42.83462 | 8.82489 | 26945 ft | 435 kts | 125° |
| 2026-05-05 15:01 | 42.82019 | 8.86118 | 26948 ft | 435 kts | 125° |
| 2026-05-05 15:01 | 42.80578 | 8.89742 | 26949 ft | 435 kts | 125° |
| 2026-05-05 15:01 | 42.79138 | 8.93362 | 26950 ft | 435 kts | 125° |
| 2026-05-05 15:01 | 42.77712 | 8.96937 | 26955 ft | 435 kts | 125° |
| 2026-05-05 15:02 | 42.76269 | 9.00550 | 26955 ft | 435 kts | 125° |
| 2026-05-05 15:02 | 42.74824 | 9.04161 | 26952 ft | 435 kts | 125° |
| 2026-05-05 15:02 | 42.73374 | 9.07773 | 26952 ft | 435 kts | 125° |
| 2026-05-05 15:02 | 42.71927 | 9.11377 | 26936 ft | 434 kts | 124° |
| 2026-05-05 15:03 | 42.70481 | 9.14980 | 26945 ft | 434 kts | 124° |
| 2026-05-05 15:03 | 42.69034 | 9.18585 | 26948 ft | 434 kts | 124° |
| 2026-05-05 15:03 | 42.67589 | 9.22182 | 26952 ft | 434 kts | 124° |
| 2026-05-05 15:03 | 42.66144 | 9.25776 | 26956 ft | 434 kts | 124° |
| 2026-05-05 15:04 | 42.64696 | 9.29374 | 26962 ft | 434 kts | 124° |
| 2026-05-05 15:04 | 42.63247 | 9.32965 | 26946 ft | 434 kts | 124° |
| 2026-05-05 15:04 | 42.61793 | 9.36549 | 26950 ft | 434 kts | 124° |
| 2026-05-05 15:04 | 42.60339 | 9.40138 | 26981 ft | 434 kts | 123° |
| 2026-05-05 15:05 | 42.58511 | 9.48024 | 26973 ft | 447 kts | 99° |
| 2026-05-05 15:05 | 42.58435 | 9.52260 | 26978 ft | 451 kts | 88° |
| 2026-05-05 15:05 | 42.58926 | 9.56469 | 26980 ft | 453 kts | 78° |
| 2026-05-05 15:06 | 42.59654 | 9.60630 | 26979 ft | 454 kts | 78° |
| 2026-05-05 15:06 | 42.60380 | 9.64800 | 26975 ft | 454 kts | 78° |
| 2026-05-05 15:06 | 42.61099 | 9.68971 | 26990 ft | 454 kts | 78° |
| 2026-05-05 15:06 | 42.61817 | 9.73147 | 26987 ft | 455 kts | 78° |
| 2026-05-05 15:07 | 42.62526 | 9.77270 | 26982 ft | 455 kts | 78° |
| 2026-05-05 15:07 | 42.63246 | 9.81451 | 26976 ft | 455 kts | 78° |
| 2026-05-05 15:07 | 42.63964 | 9.85640 | 26950 ft | 455 kts | 78° |
| 2026-05-05 15:07 | 42.64678 | 9.89819 | 26955 ft | 454 kts | 78° |
| 2026-05-05 15:08 | 42.65389 | 9.93996 | 26958 ft | 454 kts | 78° |
| 2026-05-05 15:08 | 42.66102 | 9.98178 | 26958 ft | 454 kts | 78° |
| 2026-05-05 15:08 | 42.66818 | 10.02357 | 26963 ft | 457 kts | 78° |
| 2026-05-05 15:08 | 42.67546 | 10.06620 | 26982 ft | 466 kts | 78° |
| 2026-05-05 15:09 | 42.68273 | 10.10892 | 26548 ft | 463 kts | 78° |
| 2026-05-05 15:09 | 42.68988 | 10.15115 | 25774 ft | 455 kts | 78° |
| 2026-05-05 15:09 | 42.69688 | 10.19271 | 24918 ft | 448 kts | 78° |
| 2026-05-05 15:09 | 42.70374 | 10.23359 | 24168 ft | 438 kts | 78° |
| 2026-05-05 15:10 | 42.71039 | 10.27348 | 23571 ft | 427 kts | 78° |
| 2026-05-05 15:10 | 42.71680 | 10.31221 | 23087 ft | 413 kts | 78° |
| 2026-05-05 15:10 | 42.72304 | 10.34967 | 22980 ft | 399 kts | 78° |
| 2026-05-05 15:10 | 42.72817 | 10.38609 | 22881 ft | 385 kts | 85° |
| 2026-05-05 15:11 | 42.72964 | 10.42179 | 22785 ft | 371 kts | 94° |
| 2026-05-05 15:11 | 42.72838 | 10.45660 | 22698 ft | 369 kts | 96° |
| 2026-05-05 15:11 | 42.72698 | 10.49145 | 22611 ft | 369 kts | 96° |
| 2026-05-05 15:11 | 42.72560 | 10.52634 | 22524 ft | 369 kts | 96° |
| 2026-05-05 15:12 | 42.72427 | 10.56115 | 22445 ft | 369 kts | 96° |
| 2026-05-05 15:12 | 42.72261 | 10.59584 | 22355 ft | 367 kts | 99° |
| 2026-05-05 15:12 | 42.71811 | 10.63003 | 21695 ft | 372 kts | 108° |
| 2026-05-05 15:12 | 42.70964 | 10.66340 | 21017 ft | 374 kts | 117° |
| 2026-05-05 15:13 | 42.69793 | 10.69432 | 20541 ft | 371 kts | 125° |
| 2026-05-05 15:13 | 42.68432 | 10.72390 | 20127 ft | 368 kts | 126° |
| 2026-05-05 15:13 | 42.67083 | 10.75334 | 19728 ft | 366 kts | 125° |
| 2026-05-05 15:13 | 42.65746 | 10.78269 | 19332 ft | 364 kts | 125° |
| 2026-05-05 15:14 | 42.64421 | 10.81181 | 19027 ft | 362 kts | 125° |
| 2026-05-05 15:14 | 42.63097 | 10.84083 | 18994 ft | 362 kts | 125° |
| 2026-05-05 15:14 | 42.61765 | 10.86991 | 19002 ft | 363 kts | 125° |
| 2026-05-05 15:14 | 42.60430 | 10.89894 | 19005 ft | 363 kts | 125° |
| 2026-05-05 15:15 | 42.59094 | 10.92795 | 19005 ft | 363 kts | 125° |
| 2026-05-05 15:15 | 42.57754 | 10.95699 | 19003 ft | 363 kts | 125° |
| 2026-05-05 15:15 | 42.56417 | 10.98598 | 19001 ft | 363 kts | 125° |
| 2026-05-05 15:15 | 42.55078 | 11.01496 | 19006 ft | 363 kts | 126° |
| 2026-05-05 15:16 | 42.53735 | 11.04396 | 19011 ft | 363 kts | 126° |
| 2026-05-05 15:16 | 42.52394 | 11.07290 | 19009 ft | 363 kts | 126° |
| 2026-05-05 15:16 | 42.51053 | 11.10182 | 19008 ft | 363 kts | 126° |
| 2026-05-05 15:16 | 42.49708 | 11.13077 | 19010 ft | 363 kts | 126° |
| 2026-05-05 15:17 | 42.48365 | 11.15965 | 19011 ft | 362 kts | 126° |
| 2026-05-05 15:17 | 42.47020 | 11.18855 | 18983 ft | 362 kts | 126° |
| 2026-05-05 15:17 | 42.45687 | 11.21725 | 18622 ft | 359 kts | 125° |
| 2026-05-05 15:17 | 42.44531 | 11.24722 | 18239 ft | 360 kts | 115° |
| 2026-05-05 15:18 | 42.43803 | 11.27966 | 17817 ft | 361 kts | 103° |
| 2026-05-05 15:18 | 42.43419 | 11.31322 | 17403 ft | 360 kts | 100° |
| 2026-05-05 15:18 | 42.43053 | 11.34665 | 16986 ft | 358 kts | 101° |
| 2026-05-05 15:18 | 42.42680 | 11.37990 | 16595 ft | 356 kts | 101° |
| 2026-05-05 15:19 | 42.42303 | 11.41295 | 16213 ft | 354 kts | 101° |
| 2026-05-05 15:19 | 42.41928 | 11.44579 | 15833 ft | 352 kts | 101° |
| 2026-05-05 15:19 | 42.41554 | 11.47851 | 15474 ft | 351 kts | 101° |
| 2026-05-05 15:19 | 42.41188 | 11.51058 | 15101 ft | 349 kts | 102° |
| 2026-05-05 15:20 | 42.40509 | 11.54166 | 14752 ft | 342 kts | 117° |
| 2026-05-05 15:20 | 42.39532 | 11.57092 | 14398 ft | 341 kts | 117° |
| 2026-05-05 15:20 | 42.38555 | 11.60003 | 14062 ft | 339 kts | 117° |
| 2026-05-05 15:20 | 42.37579 | 11.62891 | 13700 ft | 337 kts | 117° |
| 2026-05-05 15:21 | 42.36605 | 11.65761 | 13319 ft | 335 kts | 118° |
| 2026-05-05 15:21 | 42.35633 | 11.68613 | 12949 ft | 333 kts | 117° |
| 2026-05-05 15:21 | 42.34664 | 11.71439 | 12593 ft | 330 kts | 118° |
| 2026-05-05 15:21 | 42.33699 | 11.74244 | 12229 ft | 328 kts | 118° |
| 2026-05-05 15:22 | 42.32861 | 11.77063 | 12097 ft | 318 kts | 106° |
| 2026-05-05 15:22 | 42.32638 | 11.79971 | 11971 ft | 307 kts | 87° |
| 2026-05-05 15:22 | 42.33045 | 11.82735 | 11845 ft | 294 kts | 72° |
| 2026-05-05 15:22 | 42.33666 | 11.85325 | 11636 ft | 286 kts | 72° |
| 2026-05-05 15:23 | 42.34270 | 11.87870 | 11297 ft | 283 kts | 72° |
| 2026-05-05 15:23 | 42.34708 | 11.90434 | 10906 ft | 278 kts | 92° |
| 2026-05-05 15:23 | 42.34289 | 11.92909 | 10501 ft | 268 kts | 123° |
| 2026-05-05 15:23 | 42.33091 | 11.94730 | 10106 ft | 256 kts | 152° |
| 2026-05-05 15:24 | 42.31487 | 11.95654 | 9757 ft | 250 kts | 167° |
| 2026-05-05 15:24 | 42.29829 | 11.96364 | 9400 ft | 250 kts | 167° |
| 2026-05-05 15:24 | 42.28176 | 11.97066 | 9071 ft | 248 kts | 167° |
| 2026-05-05 15:24 | 42.26531 | 11.97763 | 8744 ft | 247 kts | 167° |
| 2026-05-05 15:25 | 42.24898 | 11.98456 | 8430 ft | 245 kts | 167° |
| 2026-05-05 15:25 | 42.23276 | 11.99143 | 8101 ft | 244 kts | 167° |
| 2026-05-05 15:25 | 42.21659 | 11.99828 | 7718 ft | 244 kts | 168° |
| 2026-05-05 15:25 | 42.20057 | 12.00509 | 7298 ft | 239 kts | 167° |
| 2026-05-05 15:26 | 42.18493 | 12.01180 | 6900 ft | 234 kts | 168° |
| 2026-05-05 15:26 | 42.16955 | 12.01838 | 6481 ft | 230 kts | 168° |
| 2026-05-05 15:26 | 42.15445 | 12.02483 | 6056 ft | 226 kts | 168° |
| 2026-05-05 15:26 | 42.13947 | 12.03121 | 5631 ft | 226 kts | 168° |
| 2026-05-05 15:27 | 42.12463 | 12.03790 | 5203 ft | 224 kts | 160° |
| 2026-05-05 15:27 | 42.11176 | 12.04980 | 4783 ft | 228 kts | 139° |
| 2026-05-05 15:27 | 42.10118 | 12.06548 | 4356 ft | 224 kts | 136° |
| 2026-05-05 15:27 | 42.09079 | 12.08078 | 3980 ft | 218 kts | 136° |
| 2026-05-05 15:28 | 42.08063 | 12.09566 | 3606 ft | 213 kts | 137° |
| 2026-05-05 15:28 | 42.07070 | 12.11019 | 3235 ft | 209 kts | 136° |
| 2026-05-05 15:28 | 42.06088 | 12.12450 | 2853 ft | 207 kts | 137° |
| 2026-05-05 15:28 | 42.05122 | 12.13858 | 2560 ft | 201 kts | 137° |
| 2026-05-05 15:29 | 42.04192 | 12.15217 | 2536 ft | 196 kts | 137° |
| 2026-05-05 15:29 | 42.03269 | 12.16564 | 2537 ft | 196 kts | 137° |
| 2026-05-05 15:29 | 42.02339 | 12.17918 | 2539 ft | 197 kts | 137° |
| 2026-05-05 15:29 | 42.01299 | 12.19062 | 2509 ft | 191 kts | 156° |
| 2026-05-05 15:30 | 42.00072 | 12.19654 | 2505 ft | 181 kts | 165° |
| 2026-05-05 15:30 | 41.98900 | 12.20144 | 2536 ft | 174 kts | 165° |
| 2026-05-05 15:30 | 41.97748 | 12.20627 | 2511 ft | 173 kts | 164° |
| 2026-05-05 15:30 | 41.96595 | 12.21111 | 2436 ft | 174 kts | 164° |
| 2026-05-05 15:31 | 41.95451 | 12.21592 | 2258 ft | 170 kts | 164° |
| 2026-05-05 15:31 | 41.94344 | 12.22058 | 2047 ft | 161 kts | 163° |
| 2026-05-05 15:31 | 41.93315 | 12.22490 | 1839 ft | 149 kts | 164° |
| 2026-05-05 15:31 | 41.92371 | 12.22887 | 1677 ft | 137 kts | 163° |
| 2026-05-05 15:32 | 41.91478 | 12.23262 | 1480 ft | 133 kts | 162° |
| 2026-05-05 15:32 | 41.90605 | 12.23627 | 1312 ft | 131 kts | 160° |
| 2026-05-05 15:32 | 41.89749 | 12.23987 | 1142 ft | 130 kts | 160° |
| 2026-05-05 15:32 | 41.88891 | 12.24349 | 969 ft | 129 kts | 163° |
| 2026-05-05 15:33 | 41.88017 | 12.24714 | 787 ft | 135 kts | 161° |
| 2026-05-05 15:33 | 41.87135 | 12.25083 | 593 ft | 132 kts | 161° |
| 2026-05-05 15:33 | 41.86269 | 12.25446 | 414 ft | 129 kts | 161° |
| 2026-05-05 15:33 | 41.85408 | 12.25807 | 241 ft | 132 kts | 163° |
| 2026-05-05 15:34 | 41.84534 | 12.26176 | 68 ft | 130 kts | 161° |
| 2026-05-05 15:34 | 41.83718 | 12.26525 | 17 ft | 109 kts | 163° |
| 2026-05-05 15:34 | 41.83139 | 12.26760 | 11 ft | 67 kts | 162° |
| 2026-05-05 15:34 | 41.82779 | 12.26912 | 14 ft | 46 kts | 163° |
| 2026-05-05 15:35 | 41.82504 | 12.27026 | 11 ft | 37 kts | 162° |
| 2026-05-05 15:35 | 41.82279 | 12.27118 | 9 ft | 28 kts | 167° |
| 2026-05-05 15:35 | 41.82095 | 12.27140 | 11 ft | 25 kts | 182° |
| 2026-05-05 15:35 | 41.81939 | 12.27104 | 11 ft | 21 kts | 192° |
| 2026-05-05 15:36 | 41.81798 | 12.27062 | 11 ft | 21 kts | 192° |
| 2026-05-05 15:36 | 41.81654 | 12.27060 | 12 ft | 20 kts | 166° |
| 2026-05-05 15:36 | 41.81522 | 12.27114 | 14 ft | 21 kts | 162° |
| 2026-05-05 15:36 | 41.81382 | 12.27175 | 12 ft | 22 kts | 162° |
| 2026-05-05 15:37 | 41.81236 | 12.27235 | 12 ft | 22 kts | 163° |
| 2026-05-05 15:37 | 41.81088 | 12.27296 | 12 ft | 22 kts | 162° |
| 2026-05-05 15:37 | 41.80946 | 12.27349 | 15 ft | 19 kts | 173° |
| 2026-05-05 15:37 | 41.80813 | 12.27330 | 12 ft | 20 kts | 190° |
| 2026-05-05 15:38 | 41.80687 | 12.27278 | 15 ft | 19 kts | 217° |
| 2026-05-05 15:38 | 41.80628 | 12.27117 | 14 ft | 20 kts | 249° |
| 2026-05-05 15:38 | 41.80576 | 12.26934 | 13 ft | 22 kts | 250° |
| 2026-05-05 15:38 | 41.80521 | 12.26737 | 14 ft | 23 kts | 250° |
| 2026-05-05 15:39 | 41.80466 | 12.26535 | 15 ft | 20 kts | 250° |
| 2026-05-05 15:39 | 41.80428 | 12.26404 | 15 ft | 12 kts | 239° |
| 2026-05-05 15:39 | 41.80347 | 12.26367 | 15 ft | 14 kts | 168° |
| 2026-05-05 15:39 | 41.80248 | 12.26411 | 15 ft | 16 kts | 173° |
| 2026-05-05 15:40 | 41.80153 | 12.26370 | 14 ft | 15 kts | 203° |
| 2026-05-05 15:40 | 41.80051 | 12.26305 | 16 ft | 17 kts | 206° |
| 2026-05-05 15:40 | 41.79937 | 12.26235 | 14 ft | 19 kts | 203° |
| 2026-05-05 15:40 | 41.79817 | 12.26160 | 14 ft | 17 kts | 205° |
| 2026-05-05 15:41 | 41.79765 | 12.26082 | 14 ft | 12 kts | 269° |
| 2026-05-05 15:41 | 41.79794 | 12.25987 | 14 ft | 11 kts | 295° |
| 2026-05-05 15:41 | 41.79824 | 12.25903 | 14 ft | 9 kts | 295° |
| 2026-05-05 15:41 | 41.79849 | 12.25831 | 15 ft | 6 kts | 294° |
| 2026-05-05 15:42 | 41.79839 | 12.25795 | 16 ft | 4 kts | 222° |
| 2026-05-05 15:42 | 41.79810 | 12.25774 | 16 ft | 7 kts | 206° |
| 2026-05-05 15:42 | 41.79767 | 12.25746 | 16 ft | 8 kts | 205° |
| 2026-05-05 15:42 | 41.79752 | 12.25717 | 14 ft | 3 kts | 258° |
| 2026-05-05 15:43 | 41.79757 | 12.25684 | 14 ft | 2 kts | 290° |
| 2026-05-05 15:43 | 41.79762 | 12.25669 | 14 ft | 1 kts | 294° |
| 2026-05-05 15:43 | 41.79764 | 12.25664 | 14 ft | 0 kts | 294° |